sensor_id;sensor_type;location;lat;lon;timestamp;pressure;altitude;pressure_sealevel;temperature;humidity
12987;BME280;58897;51.960;5.582;2022-10-13T00:01:12;101603.16;;;11.22;100.00
12987;BME280;58897;51.960;5.582;2022-10-13T00:03:39;101605.50;;;11.34;100.00
12987;BME280;58897;51.960;5.582;2022-10-13T00:06:09;101605.78;;;11.41;100.00
12987;BME280;58897;51.960;5.582;2022-10-13T00:08:36;101597.81;;;11.39;100.00
12987;BME280;58897;51.960;5.582;2022-10-13T00:11:14;101593.13;;;11.32;100.00
12987;BME280;58897;51.960;5.582;2022-10-13T00:13:42;101591.25;;;11.42;100.00
12987;BME280;58897;51.960;5.582;2022-10-13T00:16:10;101590.13;;;11.35;100.00
12987;BME280;58897;51.960;5.582;2022-10-13T00:18:37;101587.66;;;11.24;100.00
12987;BME280;58897;51.960;5.582;2022-10-13T00:21:12;101585.78;;;11.24;100.00
12987;BME280;58897;51.960;5.582;2022-10-13T00:23:39;101579.94;;;11.29;100.00
12987;BME280;58897;51.960;5.582;2022-10-13T00:26:08;101577.72;;;11.42;100.00
12987;BME280;58897;51.960;5.582;2022-10-13T00:28:35;101571.19;;;11.35;100.00
12987;BME280;58897;51.960;5.582;2022-10-13T00:31:03;101566.25;;;11.30;100.00
12987;BME280;58897;51.960;5.582;2022-10-13T00:33:29;101571.47;;;11.41;100.00
12987;BME280;58897;51.960;5.582;2022-10-13T00:35:55;101568.78;;;11.32;100.00
12987;BME280;58897;51.960;5.582;2022-10-13T00:38:22;101572.22;;;11.34;100.00
12987;BME280;58897;51.960;5.582;2022-10-13T00:40:54;101573.50;;;11.30;100.00
12987;BME280;58897;51.960;5.582;2022-10-13T00:46:21;101572.84;;;11.45;100.00
12987;BME280;58897;51.960;5.582;2022-10-13T00:48:47;101565.66;;;11.36;100.00
12987;BME280;58897;51.960;5.582;2022-10-13T00:51:18;101567.72;;;11.42;100.00
12987;BME280;58897;51.960;5.582;2022-10-13T00:53:46;101566.91;;;11.42;100.00
12987;BME280;58897;51.960;5.582;2022-10-13T00:56:16;101574.91;;;11.34;100.00
12987;BME280;58897;51.960;5.582;2022-10-13T00:58:45;101570.59;;;11.41;100.00
12987;BME280;58897;51.960;5.582;2022-10-13T01:01:12;101582.81;;;11.45;100.00
12987;BME280;58897;51.960;5.582;2022-10-13T01:03:39;101579.41;;;11.43;100.00
12987;BME280;58897;51.960;5.582;2022-10-13T01:06:06;101579.56;;;11.41;100.00
12987;BME280;58897;51.960;5.582;2022-10-13T01:08:34;101571.69;;;11.48;100.00
12987;BME280;58897;51.960;5.582;2022-10-13T01:13:59;101573.53;;;11.47;100.00
12987;BME280;58897;51.960;5.582;2022-10-13T01:30:36;101566.19;;;11.40;100.00
12987;BME280;58897;51.960;5.582;2022-10-13T01:36:00;101549.34;;;11.46;100.00
12987;BME280;58897;51.960;5.582;2022-10-13T01:38:45;101562.41;;;11.50;100.00
12987;BME280;58897;51.960;5.582;2022-10-13T01:41:24;101562.81;;;11.55;100.00
12987;BME280;58897;51.960;5.582;2022-10-13T01:44:03;101554.31;;;11.50;100.00
12987;BME280;58897;51.960;5.582;2022-10-13T01:46:35;101554.31;;;11.50;100.00
12987;BME280;58897;51.960;5.582;2022-10-13T01:49:10;101556.97;;;11.60;100.00
12987;BME280;58897;51.960;5.582;2022-10-13T01:51:38;101548.97;;;11.58;100.00
12987;BME280;58897;51.960;5.582;2022-10-13T01:54:05;101554.16;;;11.52;100.00
12987;BME280;58897;51.960;5.582;2022-10-13T01:56:32;101545.97;;;11.61;100.00
12987;BME280;58897;51.960;5.582;2022-10-13T01:59:01;101553.41;;;11.59;100.00
12987;BME280;58897;51.960;5.582;2022-10-13T02:01:43;101544.50;;;11.49;100.00
12987;BME280;58897;51.960;5.582;2022-10-13T02:04:50;101543.66;;;11.49;100.00
12987;BME280;58897;51.960;5.582;2022-10-13T02:07:43;101543.88;;;11.55;100.00
12987;BME280;58897;51.960;5.582;2022-10-13T02:12:51;101541.03;;;11.57;100.00
12987;BME280;58897;51.960;5.582;2022-10-13T02:15:21;101536.16;;;11.60;100.00
12987;BME280;58897;51.960;5.582;2022-10-13T02:17:50;101533.78;;;11.57;100.00
12987;BME280;58897;51.960;5.582;2022-10-13T02:20:18;101529.19;;;11.58;100.00
12987;BME280;58897;51.960;5.582;2022-10-13T02:22:47;101524.09;;;11.55;100.00
12987;BME280;58897;51.960;5.582;2022-10-13T02:25:17;101508.78;;;11.46;100.00
12987;BME280;58897;51.960;5.582;2022-10-13T02:27:45;101514.28;;;11.54;100.00
12987;BME280;58897;51.960;5.582;2022-10-13T02:30:22;101517.66;;;11.56;100.00
12987;BME280;58897;51.960;5.582;2022-10-13T02:32:49;101509.72;;;11.54;100.00
12987;BME280;58897;51.960;5.582;2022-10-13T02:35:16;101518.69;;;11.55;100.00
12987;BME280;58897;51.960;5.582;2022-10-13T02:37:43;101514.75;;;11.49;100.00
12987;BME280;58897;51.960;5.582;2022-10-13T02:40:10;101520.38;;;11.56;100.00
12987;BME280;58897;51.960;5.582;2022-10-13T02:42:37;101510.25;;;11.58;100.00
12987;BME280;58897;51.960;5.582;2022-10-13T02:45:04;101517.38;;;11.59;100.00
12987;BME280;58897;51.960;5.582;2022-10-13T02:47:30;101510.25;;;11.58;100.00
12987;BME280;58897;51.960;5.582;2022-10-13T02:49:57;101509.84;;;11.53;100.00
12987;BME280;58897;51.960;5.582;2022-10-13T02:52:23;101515.66;;;11.58;100.00
12987;BME280;58897;51.960;5.582;2022-10-13T02:54:50;101503.53;;;11.62;100.00
12987;BME280;58897;51.960;5.582;2022-10-13T02:57:17;101505.69;;;11.58;100.00
12987;BME280;58897;51.960;5.582;2022-10-13T02:59:43;101497.94;;;11.63;100.00
12987;BME280;58897;51.960;5.582;2022-10-13T03:02:10;101496.41;;;11.61;100.00
12987;BME280;58897;51.960;5.582;2022-10-13T03:04:36;101496.66;;;11.67;100.00
12987;BME280;58897;51.960;5.582;2022-10-13T03:07:03;101494.72;;;11.60;100.00
12987;BME280;58897;51.960;5.582;2022-10-13T03:09:29;101483.25;;;11.66;100.00
12987;BME280;58897;51.960;5.582;2022-10-13T03:11:55;101473.47;;;11.65;100.00
12987;BME280;58897;51.960;5.582;2022-10-13T03:14:22;101477.16;;;11.64;100.00
12987;BME280;58897;51.960;5.582;2022-10-13T03:16:48;101463.06;;;11.70;100.00
12987;BME280;58897;51.960;5.582;2022-10-13T03:19:15;101472.84;;;11.71;100.00
12987;BME280;58897;51.960;5.582;2022-10-13T03:21:41;101475.06;;;11.58;100.00
12987;BME280;58897;51.960;5.582;2022-10-13T03:24:07;101478.16;;;11.63;100.00
12987;BME280;58897;51.960;5.582;2022-10-13T03:26:34;101480.03;;;11.62;100.00
12987;BME280;58897;51.960;5.582;2022-10-13T03:29:01;101484.97;;;11.67;100.00
12987;BME280;58897;51.960;5.582;2022-10-13T03:31:27;101475.16;;;11.66;100.00
12987;BME280;58897;51.960;5.582;2022-10-13T03:33:54;101471.06;;;11.62;100.00
12987;BME280;58897;51.960;5.582;2022-10-13T03:36:20;101471.44;;;11.67;100.00
12987;BME280;58897;51.960;5.582;2022-10-13T03:38:47;101468.75;;;11.67;100.00
12987;BME280;58897;51.960;5.582;2022-10-13T03:41:15;101464.44;;;11.74;100.00
12987;BME280;58897;51.960;5.582;2022-10-13T03:43:43;101467.13;;;11.74;100.00
12987;BME280;58897;51.960;5.582;2022-10-13T03:46:11;101468.28;;;11.71;100.00
12987;BME280;58897;51.960;5.582;2022-10-13T03:48:38;101458.88;;;11.75;100.00
12987;BME280;58897;51.960;5.582;2022-10-13T03:51:06;101464.44;;;11.74;100.00
12987;BME280;58897;51.960;5.582;2022-10-13T03:53:34;101458.16;;;11.73;100.00
12987;BME280;58897;51.960;5.582;2022-10-13T03:56:00;101454.66;;;11.81;100.00
12987;BME280;58897;51.960;5.582;2022-10-13T03:58:27;101457.84;;;11.76;100.00
12987;BME280;58897;51.960;5.582;2022-10-13T04:00:54;101456.38;;;11.82;100.00
12987;BME280;58897;51.960;5.582;2022-10-13T04:03:22;101457.53;;;11.80;100.00
12987;BME280;58897;51.960;5.582;2022-10-13T04:05:49;101459.25;;;11.81;100.00
12987;BME280;58897;51.960;5.582;2022-10-13T04:08:16;101462.78;;;11.81;100.00
12987;BME280;58897;51.960;5.582;2022-10-13T04:10:42;101457.94;;;11.85;100.00
12987;BME280;58897;51.960;5.582;2022-10-13T04:13:08;101459.31;;;11.89;100.00
12987;BME280;58897;51.960;5.582;2022-10-13T04:15:36;101449.13;;;11.83;100.00
12987;BME280;58897;51.960;5.582;2022-10-13T04:18:04;101440.81;;;11.84;100.00
12987;BME280;58897;51.960;5.582;2022-10-13T04:20:30;101426.28;;;11.85;100.00
12987;BME280;58897;51.960;5.582;2022-10-13T04:22:57;101430.53;;;11.88;100.00
12987;BME280;58897;51.960;5.582;2022-10-13T04:25:23;101400.75;;;11.88;100.00
12987;BME280;58897;51.960;5.582;2022-10-13T04:27:49;101425.59;;;11.83;100.00
12987;BME280;58897;51.960;5.582;2022-10-13T04:30:16;101429.56;;;11.89;100.00
12987;BME280;58897;51.960;5.582;2022-10-13T04:32:42;101427.16;;;11.86;100.00
12987;BME280;58897;51.960;5.582;2022-10-13T04:35:09;101424.59;;;11.84;100.00
12987;BME280;58897;51.960;5.582;2022-10-13T04:37:35;101417.50;;;11.83;100.00
12987;BME280;58897;51.960;5.582;2022-10-13T04:40:04;101418.84;;;11.87;100.00
12987;BME280;58897;51.960;5.582;2022-10-13T04:42:31;101414.13;;;11.89;100.00
12987;BME280;58897;51.960;5.582;2022-10-13T04:44:57;101410.44;;;11.90;100.00
12987;BME280;58897;51.960;5.582;2022-10-13T04:47:23;101414.97;;;11.90;100.00
12987;BME280;58897;51.960;5.582;2022-10-13T04:49:50;101411.28;;;11.91;100.00
12987;BME280;58897;51.960;5.582;2022-10-13T04:52:16;101414.84;;;11.91;100.00
12987;BME280;58897;51.960;5.582;2022-10-13T04:54:43;101419.16;;;11.84;100.00
12987;BME280;58897;51.960;5.582;2022-10-13T04:57:09;101418.56;;;11.90;100.00
12987;BME280;58897;51.960;5.582;2022-10-13T04:59:36;101412.44;;;11.88;100.00
12987;BME280;58897;51.960;5.582;2022-10-13T05:02:02;101418.56;;;11.90;100.00
12987;BME280;58897;51.960;5.582;2022-10-13T05:04:29;101417.88;;;11.88;100.00
12987;BME280;58897;51.960;5.582;2022-10-13T05:06:55;101413.06;;;11.82;100.00
12987;BME280;58897;51.960;5.582;2022-10-13T05:09:41;101423.41;;;11.87;100.00
12987;BME280;58897;51.960;5.582;2022-10-13T05:12:08;101428.16;;;11.85;100.00
12987;BME280;58897;51.960;5.582;2022-10-13T05:14:34;101437.97;;;11.86;100.00
12987;BME280;58897;51.960;5.582;2022-10-13T05:17:01;101443.59;;;11.92;100.00
12987;BME280;58897;51.960;5.582;2022-10-13T05:19:27;101437.66;;;11.89;100.00
12987;BME280;58897;51.960;5.582;2022-10-13T05:21:53;101442.06;;;11.90;100.00
12987;BME280;58897;51.960;5.582;2022-10-13T05:24:20;101448.34;;;11.90;100.00
12987;BME280;58897;51.960;5.582;2022-10-13T05:26:56;101440.75;;;11.94;100.00
12987;BME280;58897;51.960;5.582;2022-10-13T05:29:23;101450.56;;;11.95;100.00
12987;BME280;58897;51.960;5.582;2022-10-13T05:31:49;101433.69;;;12.01;100.00
12987;BME280;58897;51.960;5.582;2022-10-13T05:34:16;101434.69;;;12.00;100.00
12987;BME280;58897;51.960;5.582;2022-10-13T05:36:42;101438.94;;;12.02;100.00
12987;BME280;58897;51.960;5.582;2022-10-13T05:39:09;101439.47;;;12.06;100.00
12987;BME280;58897;51.960;5.582;2022-10-13T05:41:35;101440.16;;;12.08;100.00
12987;BME280;58897;51.960;5.582;2022-10-13T05:44:05;101444.59;;;12.09;100.00
12987;BME280;58897;51.960;5.582;2022-10-13T05:46:32;101439.47;;;12.06;100.00
12987;BME280;58897;51.960;5.582;2022-10-13T05:48:59;101436.16;;;12.12;100.00
12987;BME280;58897;51.960;5.582;2022-10-13T05:51:37;101435.84;;;12.15;100.00
12987;BME280;58897;51.960;5.582;2022-10-13T05:54:29;101437.69;;;12.14;100.00
12987;BME280;58897;51.960;5.582;2022-10-13T05:59:31;101423.28;;;12.14;100.00
12987;BME280;58897;51.960;5.582;2022-10-13T06:02:01;101427.38;;;12.18;100.00
12987;BME280;58897;51.960;5.582;2022-10-13T06:04:33;101425.13;;;12.13;100.00
12987;BME280;58897;51.960;5.582;2022-10-13T06:07:01;101411.91;;;12.10;100.00
12987;BME280;58897;51.960;5.582;2022-10-13T06:09:32;101409.88;;;12.12;100.00
12987;BME280;58897;51.960;5.582;2022-10-13T06:12:00;101415.97;;;12.06;100.00
12987;BME280;58897;51.960;5.582;2022-10-13T06:14:26;101409.19;;;12.10;100.00
12987;BME280;58897;51.960;5.582;2022-10-13T06:16:52;101404.47;;;12.12;100.00
12987;BME280;58897;51.960;5.582;2022-10-13T06:19:19;101414.00;;;12.16;100.00
12987;BME280;58897;51.960;5.582;2022-10-13T06:21:45;101410.59;;;12.14;100.00
12987;BME280;58897;51.960;5.582;2022-10-13T06:24:12;101408.56;;;12.16;100.00
12987;BME280;58897;51.960;5.582;2022-10-13T06:26:38;101402.16;;;12.17;100.00
12987;BME280;58897;51.960;5.582;2022-10-13T06:29:05;101394.03;;;12.17;100.00
12987;BME280;58897;51.960;5.582;2022-10-13T06:31:31;101403.84;;;12.18;100.00
12987;BME280;58897;51.960;5.582;2022-10-13T06:33:58;101392.19;;;12.26;100.00
12987;BME280;58897;51.960;5.582;2022-10-13T06:36:25;101400.34;;;12.26;100.00
12987;BME280;58897;51.960;5.582;2022-10-13T06:38:51;101406.34;;;12.12;100.00
12987;BME280;58897;51.960;5.582;2022-10-13T06:41:18;101403.34;;;12.15;100.00
12987;BME280;58897;51.960;5.582;2022-10-13T06:43:44;101393.50;;;12.14;100.00
12987;BME280;58897;51.960;5.582;2022-10-13T06:46:11;101386.84;;;12.08;100.00
12987;BME280;58897;51.960;5.582;2022-10-13T06:48:38;101401.09;;;12.10;100.00
12987;BME280;58897;51.960;5.582;2022-10-13T06:51:06;101400.22;;;12.10;100.00
12987;BME280;58897;51.960;5.582;2022-10-13T06:53:34;101389.06;;;12.13;100.00
12987;BME280;58897;51.960;5.582;2022-10-13T06:56:02;101396.22;;;12.14;100.00
12987;BME280;58897;51.960;5.582;2022-10-13T06:58:29;101396.22;;;12.14;100.00
12987;BME280;58897;51.960;5.582;2022-10-13T07:00:56;101402.09;;;12.09;100.00
12987;BME280;58897;51.960;5.582;2022-10-13T07:03:23;101405.19;;;12.14;100.00
12987;BME280;58897;51.960;5.582;2022-10-13T07:05:50;101412.28;;;12.15;100.00
12987;BME280;58897;51.960;5.582;2022-10-13T07:08:17;101411.81;;;12.20;100.00
12987;BME280;58897;51.960;5.582;2022-10-13T07:10:44;101403.53;;;12.21;100.00
12987;BME280;58897;51.960;5.582;2022-10-13T07:13:10;101403.00;;;12.18;100.00
12987;BME280;58897;51.960;5.582;2022-10-13T07:15:38;101401.81;;;12.20;100.00
12987;BME280;58897;51.960;5.582;2022-10-13T07:18:05;101404.53;;;12.20;100.00
12987;BME280;58897;51.960;5.582;2022-10-13T07:20:31;101405.19;;;12.14;100.00
12987;BME280;58897;51.960;5.582;2022-10-13T07:22:58;101401.09;;;12.10;100.00
12987;BME280;58897;51.960;5.582;2022-10-13T07:25:24;101405.31;;;12.13;100.00
12987;BME280;58897;51.960;5.582;2022-10-13T07:27:51;101406.50;;;12.10;100.00
12987;BME280;58897;51.960;5.582;2022-10-13T07:30:17;101404.75;;;12.01;100.00
12987;BME280;58897;51.960;5.582;2022-10-13T07:32:44;101410.38;;;12.08;100.00
12987;BME280;58897;51.960;5.582;2022-10-13T07:35:10;101411.41;;;12.07;100.00
12987;BME280;58897;51.960;5.582;2022-10-13T07:37:37;101411.34;;;11.99;100.00
12987;BME280;58897;51.960;5.582;2022-10-13T07:40:05;101409.47;;;11.99;100.00
12987;BME280;58897;51.960;5.582;2022-10-13T07:42:32;101405.88;;;11.91;100.00
12987;BME280;58897;51.960;5.582;2022-10-13T07:44:58;101410.00;;;12.03;100.00
12987;BME280;58897;51.960;5.582;2022-10-13T07:47:25;101408.69;;;12.07;100.00
12987;BME280;58897;51.960;5.582;2022-10-13T07:49:51;101405.63;;;12.10;100.00
12987;BME280;58897;51.960;5.582;2022-10-13T07:52:19;101413.56;;;12.03;100.00
12987;BME280;58897;51.960;5.582;2022-10-13T07:54:47;101407.59;;;12.00;100.00
12987;BME280;58897;51.960;5.582;2022-10-13T07:57:13;101404.22;;;11.98;100.00
12987;BME280;58897;51.960;5.582;2022-10-13T07:59:40;101413.75;;;12.10;100.00
12987;BME280;58897;51.960;5.582;2022-10-13T08:02:08;101405.56;;;12.19;100.00
12987;BME280;58897;51.960;5.582;2022-10-13T08:04:35;101403.69;;;12.20;100.00
12987;BME280;58897;51.960;5.582;2022-10-13T08:07:02;101397.75;;;12.16;100.00
12987;BME280;58897;51.960;5.582;2022-10-13T08:09:28;101405.69;;;12.18;100.00
12987;BME280;58897;51.960;5.582;2022-10-13T08:11:55;101403.47;;;12.13;100.00
12987;BME280;58897;51.960;5.582;2022-10-13T08:14:27;101400.44;;;12.16;100.00
12987;BME280;58897;51.960;5.582;2022-10-13T08:16:54;101408.34;;;12.10;100.00
12987;BME280;58897;51.960;5.582;2022-10-13T08:19:20;101402.66;;;12.21;100.00
12987;BME280;58897;51.960;5.582;2022-10-13T08:21:48;101404.22;;;12.23;100.00
12987;BME280;58897;51.960;5.582;2022-10-13T08:24:24;101407.59;;;12.17;100.00
12987;BME280;58897;51.960;5.582;2022-10-13T08:26:51;101404.53;;;12.20;100.00
12987;BME280;58897;51.960;5.582;2022-10-13T08:29:18;101416.91;;;12.23;100.00
12987;BME280;58897;51.960;5.582;2022-10-13T08:31:48;101417.63;;;12.25;100.00
12987;BME280;58897;51.960;5.582;2022-10-13T08:34:21;101414.09;;;12.32;100.00
12987;BME280;58897;51.960;5.582;2022-10-13T08:36:48;101413.44;;;12.38;100.00
12987;BME280;58897;51.960;5.582;2022-10-13T08:39:18;101409.38;;;12.34;100.00
12987;BME280;58897;51.960;5.582;2022-10-13T08:41:45;101408.72;;;12.41;100.00
12987;BME280;58897;51.960;5.582;2022-10-13T08:45:01;101408.88;;;12.39;100.00
12987;BME280;58897;51.960;5.582;2022-10-13T08:47:48;101408.28;;;12.53;100.00
12987;BME280;58897;51.960;5.582;2022-10-13T08:50:20;101415.06;;;12.57;100.00
12987;BME280;58897;51.960;5.582;2022-10-13T08:53:01;101414.06;;;12.58;100.00
12987;BME280;58897;51.960;5.582;2022-10-13T08:55:42;101411.16;;;12.60;100.00
12987;BME280;58897;51.960;5.582;2022-10-13T08:58:34;101406.81;;;12.67;100.00
12987;BME280;58897;51.960;5.582;2022-10-13T09:01:11;101405.09;;;12.66;100.00
12987;BME280;58897;51.960;5.582;2022-10-13T09:03:49;101398.91;;;12.81;100.00
12987;BME280;58897;51.960;5.582;2022-10-13T09:06:26;101396.38;;;12.88;100.00
12987;BME280;58897;51.960;5.582;2022-10-13T09:11:26;101385.97;;;13.25;100.00
12987;BME280;58897;51.960;5.582;2022-10-13T09:13:56;101385.47;;;13.38;100.00
12987;BME280;58897;51.960;5.582;2022-10-13T09:16:28;101385.69;;;13.44;100.00
12987;BME280;58897;51.960;5.582;2022-10-13T09:19:24;101387.19;;;13.31;100.00
12987;BME280;58897;51.960;5.582;2022-10-13T09:22:18;101388.88;;;13.48;100.00
12987;BME280;58897;51.960;5.582;2022-10-13T09:25:08;101388.53;;;13.51;100.00
12987;BME280;58897;51.960;5.582;2022-10-13T09:27:54;101388.03;;;13.39;100.00
12987;BME280;58897;51.960;5.582;2022-10-13T09:30:33;101387.72;;;13.34;100.00
12987;BME280;58897;51.960;5.582;2022-10-13T09:35:32;101373.78;;;13.53;100.00
12987;BME280;58897;51.960;5.582;2022-10-13T09:38:20;101384.63;;;13.45;100.00
12987;BME280;58897;51.960;5.582;2022-10-13T09:41:18;101377.88;;;13.57;100.00
12987;BME280;58897;51.960;5.582;2022-10-13T09:46:23;101372.94;;;13.61;100.00
12987;BME280;58897;51.960;5.582;2022-10-13T09:48:55;101366.50;;;13.62;100.00
12987;BME280;58897;51.960;5.582;2022-10-13T09:51:35;101376.34;;;13.71;100.00
12987;BME280;58897;51.960;5.582;2022-10-13T09:54:04;101373.59;;;13.79;100.00
12987;BME280;58897;51.960;5.582;2022-10-13T09:56:42;101379.56;;;13.83;100.00
12987;BME280;58897;51.960;5.582;2022-10-13T09:59:23;101373.78;;;13.70;100.00
12987;BME280;58897;51.960;5.582;2022-10-13T10:01:53;101378.53;;;13.84;100.00
12987;BME280;58897;51.960;5.582;2022-10-13T10:04:25;101369.03;;;13.88;100.00
12987;BME280;58897;51.960;5.582;2022-10-13T10:06:55;101361.88;;;13.95;100.00
12987;BME280;58897;51.960;5.582;2022-10-13T10:09:34;101367.50;;;13.85;100.00
12987;BME280;58897;51.960;5.582;2022-10-13T10:12:03;101369.38;;;13.77;100.00
12987;BME280;58897;51.960;5.582;2022-10-13T10:14:36;101354.25;;;13.82;100.00
12987;BME280;58897;51.960;5.582;2022-10-13T10:20:00;101356.63;;;13.85;100.00
12987;BME280;58897;51.960;5.582;2022-10-13T10:25:25;101357.31;;;13.87;100.00
12987;BME280;58897;51.960;5.582;2022-10-13T10:30:42;101362.59;;;13.89;100.00
12987;BME280;58897;51.960;5.582;2022-10-13T10:33:13;101355.31;;;13.73;100.00
12987;BME280;58897;51.960;5.582;2022-10-13T10:36:02;101351.22;;;13.69;100.00
12987;BME280;58897;51.960;5.582;2022-10-13T10:41:43;101350.88;;;13.72;100.00
12987;BME280;58897;51.960;5.582;2022-10-13T10:44:16;101351.22;;;13.77;100.00
12987;BME280;58897;51.960;5.582;2022-10-13T10:46:47;101349.53;;;13.76;100.00
12987;BME280;58897;51.960;5.582;2022-10-13T10:49:19;101352.41;;;13.75;100.00
12987;BME280;58897;51.960;5.582;2022-10-13T10:51:48;101352.94;;;13.62;100.00
12987;BME280;58897;51.960;5.582;2022-10-13T10:57:00;101352.94;;;13.46;100.00
12987;BME280;58897;51.960;5.582;2022-10-13T11:00:10;101350.06;;;13.39;100.00
12987;BME280;58897;51.960;5.582;2022-10-13T11:03:12;101343.78;;;13.39;100.00
12987;BME280;58897;51.960;5.582;2022-10-13T11:08:40;101342.25;;;13.36;100.00
12987;BME280;58897;51.960;5.582;2022-10-13T11:16:34;101348.81;;;13.10;100.00
12987;BME280;58897;51.960;5.582;2022-10-13T11:35:19;101330.94;;;12.83;100.00
12987;BME280;58897;51.960;5.582;2022-10-13T11:43:40;101321.09;;;12.66;100.00
12987;BME280;58897;51.960;5.582;2022-10-13T11:51:40;101316.38;;;12.76;100.00
12987;BME280;58897;51.960;5.582;2022-10-13T11:54:31;101319.13;;;12.92;100.00
12987;BME280;58897;51.960;5.582;2022-10-13T11:56:59;101314.34;;;12.86;100.00
12987;BME280;58897;51.960;5.582;2022-10-13T11:59:28;101309.97;;;12.93;100.00
12987;BME280;58897;51.960;5.582;2022-10-13T12:02:13;101301.03;;;13.09;100.00
12987;BME280;58897;51.960;5.582;2022-10-13T12:05:02;101297.13;;;13.27;100.00
12987;BME280;58897;51.960;5.582;2022-10-13T12:07:33;101299.50;;;13.14;100.00
12987;BME280;58897;51.960;5.582;2022-10-13T12:10:02;101296.63;;;13.08;100.00
12987;BME280;58897;51.960;5.582;2022-10-13T12:12:30;101297.59;;;12.98;100.00
12987;BME280;58897;51.960;5.582;2022-10-13T12:14:57;101295.53;;;12.84;100.00
12987;BME280;58897;51.960;5.582;2022-10-13T12:17:31;101293.34;;;12.88;100.00
12987;BME280;58897;51.960;5.582;2022-10-13T12:20:15;101287.56;;;12.91;100.00
12987;BME280;58897;51.960;5.582;2022-10-13T12:22:47;101285.88;;;12.82;100.00
12987;BME280;58897;51.960;5.582;2022-10-13T12:25:15;101290.28;;;12.91;100.00
12987;BME280;58897;51.960;5.582;2022-10-13T12:27:48;101295.38;;;12.86;100.00
12987;BME280;58897;51.960;5.582;2022-10-13T12:30:24;101299.44;;;12.82;100.00
12987;BME280;58897;51.960;5.582;2022-10-13T12:32:54;101290.63;;;12.88;100.00
12987;BME280;58897;51.960;5.582;2022-10-13T12:35:30;101283.66;;;12.85;100.00
12987;BME280;58897;51.960;5.582;2022-10-13T12:38:00;101291.47;;;12.88;100.00
12987;BME280;58897;51.960;5.582;2022-10-13T12:40:27;101286.22;;;12.79;100.00
12987;BME280;58897;51.960;5.582;2022-10-13T12:42:54;101286.56;;;12.84;100.00
12987;BME280;58897;51.960;5.582;2022-10-13T12:45:27;101284.84;;;12.83;100.00
12987;BME280;58897;51.960;5.582;2022-10-13T12:47:56;101290.44;;;12.73;100.00
12987;BME280;58897;51.960;5.582;2022-10-13T12:55:30;101279.44;;;12.91;100.00
12987;BME280;58897;51.960;5.582;2022-10-13T12:57:56;101283.66;;;12.85;100.00
12987;BME280;58897;51.960;5.582;2022-10-13T13:00:28;101282.47;;;12.88;100.00
12987;BME280;58897;51.960;5.582;2022-10-13T13:02:59;101277.25;;;12.94;100.00
12987;BME280;58897;51.960;5.582;2022-10-13T13:08:00;101281.16;;;13.00;100.00
12987;BME280;58897;51.960;5.582;2022-10-13T13:10:27;101284.72;;;13.00;100.00
12987;BME280;58897;51.960;5.582;2022-10-13T13:12:54;101283.91;;;13.08;100.00
12987;BME280;58897;51.960;5.582;2022-10-13T13:17:51;101278.63;;;13.07;100.00
12987;BME280;58897;51.960;5.582;2022-10-13T13:20:30;101275.59;;;13.10;100.00
12987;BME280;58897;51.960;5.582;2022-10-13T13:22:57;101267.13;;;13.13;100.00
12987;BME280;58897;51.960;5.582;2022-10-13T13:25:24;101267.97;;;13.13;100.00
12987;BME280;58897;51.960;5.582;2022-10-13T13:27:51;101273.91;;;13.09;100.00
12987;BME280;58897;51.960;5.582;2022-10-13T13:30:21;101264.41;;;13.13;100.00
12987;BME280;58897;51.960;5.582;2022-10-13T13:32:48;101268.66;;;13.15;100.00
12987;BME280;58897;51.960;5.582;2022-10-13T13:35:14;101270.03;;;13.11;100.00
12987;BME280;58897;51.960;5.582;2022-10-13T13:37:48;101266.28;;;13.12;100.00
12987;BME280;58897;51.960;5.582;2022-10-13T13:40:22;101267.47;;;13.18;100.00
12987;BME280;58897;51.960;5.582;2022-10-13T13:42:49;101264.59;;;13.11;100.00
12987;BME280;58897;51.960;5.582;2022-10-13T13:45:18;101268.31;;;13.10;100.00
12987;BME280;58897;51.960;5.582;2022-10-13T13:47:45;101260.84;;;13.12;100.00
12987;BME280;58897;51.960;5.582;2022-10-13T13:50:24;101250.34;;;13.17;100.00
12987;BME280;58897;51.960;5.582;2022-10-13T13:52:51;101265.28;;;13.21;100.00
12987;BME280;58897;51.960;5.582;2022-10-13T13:55:18;101255.94;;;13.16;100.00
12987;BME280;58897;51.960;5.582;2022-10-13T13:57:44;101254.41;;;13.21;100.00
12987;BME280;58897;51.960;5.582;2022-10-13T14:00:12;101252.19;;;13.25;100.00
12987;BME280;58897;51.960;5.582;2022-10-13T14:02:39;101244.75;;;13.19;100.00
12987;BME280;58897;51.960;5.582;2022-10-13T14:05:06;101263.91;;;13.25;100.00
12987;BME280;58897;51.960;5.582;2022-10-13T14:07:33;101249.31;;;13.26;100.00
12987;BME280;58897;51.960;5.582;2022-10-13T14:09:59;101245.75;;;13.34;100.00
12987;BME280;58897;51.960;5.582;2022-10-13T14:12:31;101243.03;;;13.42;100.00
12987;BME280;58897;51.960;5.582;2022-10-13T14:14:58;101240.84;;;13.37;100.00
12987;BME280;58897;51.960;5.582;2022-10-13T14:17:25;101242.19;;;13.33;100.00
12987;BME280;58897;51.960;5.582;2022-10-13T14:19:51;101235.06;;;13.32;100.00
12987;BME280;58897;51.960;5.582;2022-10-13T14:22:18;101237.94;;;13.47;100.00
12987;BME280;58897;51.960;5.582;2022-10-13T14:24:45;101237.75;;;13.56;100.00
12987;BME280;58897;51.960;5.582;2022-10-13T14:27:11;101235.53;;;13.60;100.00
12987;BME280;58897;51.960;5.582;2022-10-13T14:29:37;101238.53;;;13.81;100.00
12987;BME280;58897;51.960;5.582;2022-10-13T14:32:04;101233.47;;;13.70;100.00